sensor_id;sensor_type;location;lat;lon;timestamp;P1;durP1;ratioP1;P2;durP2;ratioP2
69594;SDS011;56800;52.142;5.364;2023-07-02T00:02:18;12.18;;;4.15;;
69594;SDS011;56800;52.142;5.364;2023-07-02T00:04:45;14.70;;;4.72;;
69594;SDS011;56800;52.142;5.364;2023-07-02T00:07:12;12.00;;;4.20;;
69594;SDS011;56800;52.142;5.364;2023-07-02T00:09:40;12.23;;;4.32;;
69594;SDS011;56800;52.142;5.364;2023-07-02T00:12:07;9.77;;;4.17;;
69594;SDS011;56800;52.142;5.364;2023-07-02T00:14:35;10.00;;;4.45;;
69594;SDS011;56800;52.142;5.364;2023-07-02T00:17:02;9.88;;;4.35;;
69594;SDS011;56800;52.142;5.364;2023-07-02T00:19:30;11.07;;;4.40;;
69594;SDS011;56800;52.142;5.364;2023-07-02T00:21:57;9.70;;;4.10;;
69594;SDS011;56800;52.142;5.364;2023-07-02T00:24:24;9.30;;;4.40;;
69594;SDS011;56800;52.142;5.364;2023-07-02T00:26:51;8.73;;;4.55;;
69594;SDS011;56800;52.142;5.364;2023-07-02T00:29:18;12.75;;;4.13;;
69594;SDS011;56800;52.142;5.364;2023-07-02T00:31:44;11.35;;;4.30;;
69594;SDS011;56800;52.142;5.364;2023-07-02T00:34:11;12.10;;;4.60;;
69594;SDS011;56800;52.142;5.364;2023-07-02T00:36:38;15.00;;;4.80;;
69594;SDS011;56800;52.142;5.364;2023-07-02T00:39:05;11.18;;;4.55;;
69594;SDS011;56800;52.142;5.364;2023-07-02T00:41:31;12.20;;;4.68;;
69594;SDS011;56800;52.142;5.364;2023-07-02T00:43:58;14.00;;;5.00;;
69594;SDS011;56800;52.142;5.364;2023-07-02T00:46:25;15.77;;;5.38;;
69594;SDS011;56800;52.142;5.364;2023-07-02T00:48:53;16.67;;;6.00;;
69594;SDS011;56800;52.142;5.364;2023-07-02T00:51:25;15.25;;;5.80;;
69594;SDS011;56800;52.142;5.364;2023-07-02T00:53:53;14.85;;;6.15;;
69594;SDS011;56800;52.142;5.364;2023-07-02T00:56:22;13.70;;;5.35;;
69594;SDS011;56800;52.142;5.364;2023-07-02T00:58:49;14.63;;;5.40;;
69594;SDS011;56800;52.142;5.364;2023-07-02T01:01:18;17.20;;;6.33;;
69594;SDS011;56800;52.142;5.364;2023-07-02T01:06:29;13.57;;;5.90;;
69594;SDS011;56800;52.142;5.364;2023-07-02T01:08:58;18.10;;;5.80;;
69594;SDS011;56800;52.142;5.364;2023-07-02T01:11:28;17.33;;;5.53;;
69594;SDS011;56800;52.142;5.364;2023-07-02T01:13:59;19.93;;;6.30;;
69594;SDS011;56800;52.142;5.364;2023-07-02T01:16:30;17.52;;;6.22;;
69594;SDS011;56800;52.142;5.364;2023-07-02T01:18:59;19.48;;;6.75;;
69594;SDS011;56800;52.142;5.364;2023-07-02T01:21:30;19.63;;;6.18;;
69594;SDS011;56800;52.142;5.364;2023-07-02T01:24:01;22.15;;;6.85;;
69594;SDS011;56800;52.142;5.364;2023-07-02T01:26:30;16.50;;;6.20;;
69594;SDS011;56800;52.142;5.364;2023-07-02T01:29:21;15.65;;;5.93;;
69594;SDS011;56800;52.142;5.364;2023-07-02T01:31:47;18.75;;;6.35;;
69594;SDS011;56800;52.142;5.364;2023-07-02T01:34:14;16.70;;;6.43;;
69594;SDS011;56800;52.142;5.364;2023-07-02T01:36:41;15.68;;;6.88;;
69594;SDS011;56800;52.142;5.364;2023-07-02T01:39:08;17.80;;;7.17;;
69594;SDS011;56800;52.142;5.364;2023-07-02T01:41:41;26.45;;;7.40;;
69594;SDS011;56800;52.142;5.364;2023-07-02T01:44:10;19.77;;;7.00;;
69594;SDS011;56800;52.142;5.364;2023-07-02T01:46:37;22.13;;;7.38;;
69594;SDS011;56800;52.142;5.364;2023-07-02T01:49:04;21.17;;;7.55;;
69594;SDS011;56800;52.142;5.364;2023-07-02T01:51:31;16.80;;;6.80;;
69594;SDS011;56800;52.142;5.364;2023-07-02T01:53:59;19.85;;;7.32;;
69594;SDS011;56800;52.142;5.364;2023-07-02T01:56:26;20.98;;;8.20;;
69594;SDS011;56800;52.142;5.364;2023-07-02T01:58:54;18.38;;;6.57;;
69594;SDS011;56800;52.142;5.364;2023-07-02T02:01:20;19.10;;;6.93;;
69594;SDS011;56800;52.142;5.364;2023-07-02T02:03:47;23.37;;;6.63;;
69594;SDS011;56800;52.142;5.364;2023-07-02T02:06:14;22.10;;;7.10;;
69594;SDS011;56800;52.142;5.364;2023-07-02T02:08:41;18.55;;;7.13;;
69594;SDS011;56800;52.142;5.364;2023-07-02T02:11:08;23.45;;;6.90;;
69594;SDS011;56800;52.142;5.364;2023-07-02T02:13:34;23.35;;;7.30;;
69594;SDS011;56800;52.142;5.364;2023-07-02T02:16:01;26.53;;;6.60;;
69594;SDS011;56800;52.142;5.364;2023-07-02T02:18:28;26.00;;;7.63;;
69594;SDS011;56800;52.142;5.364;2023-07-02T02:20:55;26.30;;;7.53;;
69594;SDS011;56800;52.142;5.364;2023-07-02T02:23:21;20.17;;;7.05;;
69594;SDS011;56800;52.142;5.364;2023-07-02T02:25:48;21.30;;;7.03;;
69594;SDS011;56800;52.142;5.364;2023-07-02T02:28:15;20.93;;;7.20;;
69594;SDS011;56800;52.142;5.364;2023-07-02T02:30:41;21.23;;;7.05;;
69594;SDS011;56800;52.142;5.364;2023-07-02T02:33:08;19.52;;;7.22;;
69594;SDS011;56800;52.142;5.364;2023-07-02T02:35:35;18.27;;;7.68;;
69594;SDS011;56800;52.142;5.364;2023-07-02T02:38:02;24.35;;;7.45;;
69594;SDS011;56800;52.142;5.364;2023-07-02T02:40:30;19.17;;;7.30;;
69594;SDS011;56800;52.142;5.364;2023-07-02T02:42:57;21.45;;;7.78;;
69594;SDS011;56800;52.142;5.364;2023-07-02T02:45:24;17.95;;;7.15;;
69594;SDS011;56800;52.142;5.364;2023-07-02T02:47:51;20.00;;;7.20;;
69594;SDS011;56800;52.142;5.364;2023-07-02T02:50:17;22.27;;;7.93;;
69594;SDS011;56800;52.142;5.364;2023-07-02T02:52:44;21.87;;;6.93;;
69594;SDS011;56800;52.142;5.364;2023-07-02T02:55:11;19.40;;;7.35;;
69594;SDS011;56800;52.142;5.364;2023-07-02T02:57:38;17.42;;;6.90;;
69594;SDS011;56800;52.142;5.364;2023-07-02T03:00:05;22.38;;;7.68;;
69594;SDS011;56800;52.142;5.364;2023-07-02T03:02:36;24.48;;;7.50;;
69594;SDS011;56800;52.142;5.364;2023-07-02T03:05:03;23.17;;;7.63;;
69594;SDS011;56800;52.142;5.364;2023-07-02T03:07:31;20.42;;;6.97;;
69594;SDS011;56800;52.142;5.364;2023-07-02T03:09:58;26.70;;;7.43;;
69594;SDS011;56800;52.142;5.364;2023-07-02T03:12:25;22.42;;;6.80;;
69594;SDS011;56800;52.142;5.364;2023-07-02T03:14:52;22.30;;;6.70;;
69594;SDS011;56800;52.142;5.364;2023-07-02T03:17:21;22.50;;;7.20;;
69594;SDS011;56800;52.142;5.364;2023-07-02T03:19:48;19.10;;;7.05;;
69594;SDS011;56800;52.142;5.364;2023-07-02T03:22:15;22.58;;;7.60;;
69594;SDS011;56800;52.142;5.364;2023-07-02T03:24:42;23.38;;;8.23;;
69594;SDS011;56800;52.142;5.364;2023-07-02T03:27:09;21.15;;;7.00;;
69594;SDS011;56800;52.142;5.364;2023-07-02T03:29:36;19.73;;;7.10;;
69594;SDS011;56800;52.142;5.364;2023-07-02T03:32:04;22.55;;;7.38;;
69594;SDS011;56800;52.142;5.364;2023-07-02T03:34:31;23.88;;;7.55;;
69594;SDS011;56800;52.142;5.364;2023-07-02T03:36:58;22.50;;;7.00;;
69594;SDS011;56800;52.142;5.364;2023-07-02T03:39:25;18.85;;;7.47;;
69594;SDS011;56800;52.142;5.364;2023-07-02T03:41:52;20.37;;;7.13;;
69594;SDS011;56800;52.142;5.364;2023-07-02T03:44:19;25.83;;;8.25;;
69594;SDS011;56800;52.142;5.364;2023-07-02T03:46:46;25.83;;;7.45;;
69594;SDS011;56800;52.142;5.364;2023-07-02T03:49:13;20.35;;;6.90;;
69594;SDS011;56800;52.142;5.364;2023-07-02T03:51:39;23.75;;;7.10;;
69594;SDS011;56800;52.142;5.364;2023-07-02T03:54:06;16.77;;;6.77;;
69594;SDS011;56800;52.142;5.364;2023-07-02T03:56:33;19.85;;;7.90;;
69594;SDS011;56800;52.142;5.364;2023-07-02T03:58:59;22.65;;;7.38;;
69594;SDS011;56800;52.142;5.364;2023-07-02T04:01:26;21.92;;;7.15;;
69594;SDS011;56800;52.142;5.364;2023-07-02T04:03:53;22.38;;;7.70;;
69594;SDS011;56800;52.142;5.364;2023-07-02T04:06:21;20.23;;;7.43;;
69594;SDS011;56800;52.142;5.364;2023-07-02T04:08:49;27.65;;;7.68;;
69594;SDS011;56800;52.142;5.364;2023-07-02T04:11:15;21.02;;;7.55;;
69594;SDS011;56800;52.142;5.364;2023-07-02T04:13:42;23.00;;;7.47;;
69594;SDS011;56800;52.142;5.364;2023-07-02T04:16:09;21.80;;;7.38;;
69594;SDS011;56800;52.142;5.364;2023-07-02T04:18:36;20.13;;;7.30;;
69594;SDS011;56800;52.142;5.364;2023-07-02T04:21:02;23.70;;;7.55;;
69594;SDS011;56800;52.142;5.364;2023-07-02T04:23:29;24.48;;;7.57;;
69594;SDS011;56800;52.142;5.364;2023-07-02T04:25:57;21.58;;;8.05;;
69594;SDS011;56800;52.142;5.364;2023-07-02T04:28:43;27.60;;;8.63;;
69594;SDS011;56800;52.142;5.364;2023-07-02T04:31:10;24.77;;;6.93;;
69594;SDS011;56800;52.142;5.364;2023-07-02T04:33:37;22.67;;;7.30;;
69594;SDS011;56800;52.142;5.364;2023-07-02T04:36:04;26.35;;;7.53;;
69594;SDS011;56800;52.142;5.364;2023-07-02T04:38:31;21.65;;;7.72;;
69594;SDS011;56800;52.142;5.364;2023-07-02T04:40:58;20.17;;;7.10;;
69594;SDS011;56800;52.142;5.364;2023-07-02T04:43:31;24.27;;;7.80;;
69594;SDS011;56800;52.142;5.364;2023-07-02T04:45:59;25.02;;;7.78;;
69594;SDS011;56800;52.142;5.364;2023-07-02T04:48:26;23.50;;;7.25;;
69594;SDS011;56800;52.142;5.364;2023-07-02T04:50:53;26.90;;;7.00;;
69594;SDS011;56800;52.142;5.364;2023-07-02T04:53:19;21.27;;;7.50;;
69594;SDS011;56800;52.142;5.364;2023-07-02T04:55:46;25.40;;;8.43;;
69594;SDS011;56800;52.142;5.364;2023-07-02T04:58:13;26.05;;;7.22;;
69594;SDS011;56800;52.142;5.364;2023-07-02T05:00:40;24.00;;;7.97;;
69594;SDS011;56800;52.142;5.364;2023-07-02T05:03:06;27.48;;;7.20;;
69594;SDS011;56800;52.142;5.364;2023-07-02T05:05:33;23.17;;;7.55;;
69594;SDS011;56800;52.142;5.364;2023-07-02T05:08:00;24.07;;;7.63;;
69594;SDS011;56800;52.142;5.364;2023-07-02T05:10:27;18.98;;;7.18;;
69594;SDS011;56800;52.142;5.364;2023-07-02T05:12:53;22.98;;;7.22;;
69594;SDS011;56800;52.142;5.364;2023-07-02T05:15:20;20.33;;;8.15;;
69594;SDS011;56800;52.142;5.364;2023-07-02T05:17:47;26.63;;;8.10;;
69594;SDS011;56800;52.142;5.364;2023-07-02T05:20:14;28.27;;;7.33;;
69594;SDS011;56800;52.142;5.364;2023-07-02T05:22:41;22.27;;;8.10;;
69594;SDS011;56800;52.142;5.364;2023-07-02T05:25:07;31.13;;;9.10;;
69594;SDS011;56800;52.142;5.364;2023-07-02T05:27:34;29.20;;;8.30;;
69594;SDS011;56800;52.142;5.364;2023-07-02T05:30:01;24.10;;;8.05;;
69594;SDS011;56800;52.142;5.364;2023-07-02T05:32:29;24.60;;;7.57;;
69594;SDS011;56800;52.142;5.364;2023-07-02T05:34:55;25.13;;;7.45;;
69594;SDS011;56800;52.142;5.364;2023-07-02T05:37:22;29.02;;;8.80;;
69594;SDS011;56800;52.142;5.364;2023-07-02T05:39:49;28.63;;;7.72;;
69594;SDS011;56800;52.142;5.364;2023-07-02T05:42:16;26.77;;;7.80;;
69594;SDS011;56800;52.142;5.364;2023-07-02T05:44:43;25.13;;;7.50;;
69594;SDS011;56800;52.142;5.364;2023-07-02T05:47:09;20.98;;;7.63;;
69594;SDS011;56800;52.142;5.364;2023-07-02T05:49:36;24.27;;;7.60;;
69594;SDS011;56800;52.142;5.364;2023-07-02T05:52:03;33.58;;;8.85;;
69594;SDS011;56800;52.142;5.364;2023-07-02T05:54:30;23.23;;;7.35;;
69594;SDS011;56800;52.142;5.364;2023-07-02T05:56:56;25.10;;;6.80;;
69594;SDS011;56800;52.142;5.364;2023-07-02T05:59:23;25.67;;;6.90;;
69594;SDS011;56800;52.142;5.364;2023-07-02T06:01:50;22.50;;;7.68;;
69594;SDS011;56800;52.142;5.364;2023-07-02T06:04:16;27.20;;;7.57;;
69594;SDS011;56800;52.142;5.364;2023-07-02T06:06:43;27.05;;;7.45;;
69594;SDS011;56800;52.142;5.364;2023-07-02T06:09:10;21.73;;;6.70;;
69594;SDS011;56800;52.142;5.364;2023-07-02T06:11:37;20.95;;;6.43;;
69594;SDS011;56800;52.142;5.364;2023-07-02T06:14:04;25.48;;;7.38;;
69594;SDS011;56800;52.142;5.364;2023-07-02T06:16:31;24.48;;;7.43;;
69594;SDS011;56800;52.142;5.364;2023-07-02T06:18:57;22.95;;;7.05;;
69594;SDS011;56800;52.142;5.364;2023-07-02T06:21:24;21.80;;;7.67;;
69594;SDS011;56800;52.142;5.364;2023-07-02T06:23:56;22.20;;;6.38;;
69594;SDS011;56800;52.142;5.364;2023-07-02T06:26:24;18.55;;;6.65;;
69594;SDS011;56800;52.142;5.364;2023-07-02T06:28:51;19.20;;;6.78;;
69594;SDS011;56800;52.142;5.364;2023-07-02T06:31:18;21.52;;;6.25;;
69594;SDS011;56800;52.142;5.364;2023-07-02T06:33:45;23.97;;;7.13;;
69594;SDS011;56800;52.142;5.364;2023-07-02T06:36:11;29.63;;;7.28;;
69594;SDS011;56800;52.142;5.364;2023-07-02T06:38:42;20.83;;;6.32;;
69594;SDS011;56800;52.142;5.364;2023-07-02T06:41:09;18.02;;;5.97;;
69594;SDS011;56800;52.142;5.364;2023-07-02T06:43:36;18.85;;;6.93;;
69594;SDS011;56800;52.142;5.364;2023-07-02T06:46:02;18.83;;;6.17;;
69594;SDS011;56800;52.142;5.364;2023-07-02T06:48:29;31.15;;;6.70;;
69594;SDS011;56800;52.142;5.364;2023-07-02T06:50:56;17.25;;;6.20;;
69594;SDS011;56800;52.142;5.364;2023-07-02T06:53:23;21.52;;;6.47;;
69594;SDS011;56800;52.142;5.364;2023-07-02T06:55:50;19.55;;;5.78;;
69594;SDS011;56800;52.142;5.364;2023-07-02T06:58:16;16.90;;;6.27;;
69594;SDS011;56800;52.142;5.364;2023-07-02T07:00:43;21.98;;;6.97;;
69594;SDS011;56800;52.142;5.364;2023-07-02T07:03:10;15.75;;;6.30;;
69594;SDS011;56800;52.142;5.364;2023-07-02T07:05:37;16.73;;;5.90;;
69594;SDS011;56800;52.142;5.364;2023-07-02T07:08:04;22.30;;;5.97;;
69594;SDS011;56800;52.142;5.364;2023-07-02T07:10:31;19.13;;;5.93;;
69594;SDS011;56800;52.142;5.364;2023-07-02T07:13:01;19.63;;;6.40;;
69594;SDS011;56800;52.142;5.364;2023-07-02T07:15:32;20.33;;;6.20;;
69594;SDS011;56800;52.142;5.364;2023-07-02T07:18:03;20.73;;;6.55;;
69594;SDS011;56800;52.142;5.364;2023-07-02T07:20:30;16.75;;;6.43;;
69594;SDS011;56800;52.142;5.364;2023-07-02T07:22:57;26.87;;;6.53;;
69594;SDS011;56800;52.142;5.364;2023-07-02T07:25:24;12.40;;;5.13;;
69594;SDS011;56800;52.142;5.364;2023-07-02T07:27:51;16.40;;;5.80;;
69594;SDS011;56800;52.142;5.364;2023-07-02T07:30:18;16.17;;;5.85;;
69594;SDS011;56800;52.142;5.364;2023-07-02T07:32:52;14.57;;;5.05;;
69594;SDS011;56800;52.142;5.364;2023-07-02T07:35:20;16.57;;;5.20;;
69594;SDS011;56800;52.142;5.364;2023-07-02T07:37:48;16.02;;;4.68;;
69594;SDS011;56800;52.142;5.364;2023-07-02T07:40:15;18.63;;;5.95;;
69594;SDS011;56800;52.142;5.364;2023-07-02T07:42:42;14.52;;;5.15;;
69594;SDS011;56800;52.142;5.364;2023-07-02T07:45:09;20.08;;;5.72;;
69594;SDS011;56800;52.142;5.364;2023-07-02T07:47:37;13.40;;;4.83;;
69594;SDS011;56800;52.142;5.364;2023-07-02T07:50:04;13.73;;;5.28;;
69594;SDS011;56800;52.142;5.364;2023-07-02T07:52:38;15.77;;;5.70;;
69594;SDS011;56800;52.142;5.364;2023-07-02T07:55:08;18.75;;;5.57;;
69594;SDS011;56800;52.142;5.364;2023-07-02T07:57:36;22.00;;;5.28;;
69594;SDS011;56800;52.142;5.364;2023-07-02T08:00:03;13.00;;;4.70;;
69594;SDS011;56800;52.142;5.364;2023-07-02T08:02:33;15.50;;;5.57;;
69594;SDS011;56800;52.142;5.364;2023-07-02T08:05:00;19.25;;;5.53;;
69594;SDS011;56800;52.142;5.364;2023-07-02T08:07:28;17.20;;;5.15;;
69594;SDS011;56800;52.142;5.364;2023-07-02T08:09:54;16.58;;;5.68;;
69594;SDS011;56800;52.142;5.364;2023-07-02T08:12:21;19.67;;;5.70;;
69594;SDS011;56800;52.142;5.364;2023-07-02T08:14:48;16.05;;;5.78;;
69594;SDS011;56800;52.142;5.364;2023-07-02T08:17:15;17.08;;;6.20;;
69594;SDS011;56800;52.142;5.364;2023-07-02T08:19:42;17.75;;;5.72;;
69594;SDS011;56800;52.142;5.364;2023-07-02T08:22:09;14.07;;;5.55;;
69594;SDS011;56800;52.142;5.364;2023-07-02T08:24:35;15.80;;;5.33;;
69594;SDS011;56800;52.142;5.364;2023-07-02T08:27:02;19.05;;;5.28;;
69594;SDS011;56800;52.142;5.364;2023-07-02T08:29:32;17.15;;;5.97;;
69594;SDS011;56800;52.142;5.364;2023-07-02T08:31:59;16.95;;;5.80;;
69594;SDS011;56800;52.142;5.364;2023-07-02T08:34:25;15.07;;;5.72;;
69594;SDS011;56800;52.142;5.364;2023-07-02T08:36:52;18.63;;;5.37;;
69594;SDS011;56800;52.142;5.364;2023-07-02T08:39:19;16.98;;;5.60;;
69594;SDS011;56800;52.142;5.364;2023-07-02T08:41:46;14.55;;;5.60;;
69594;SDS011;56800;52.142;5.364;2023-07-02T08:44:16;16.92;;;5.40;;
69594;SDS011;56800;52.142;5.364;2023-07-02T08:46:46;14.43;;;4.65;;
69594;SDS011;56800;52.142;5.364;2023-07-02T08:49:17;13.87;;;5.07;;
69594;SDS011;56800;52.142;5.364;2023-07-02T08:51:44;12.23;;;5.45;;
69594;SDS011;56800;52.142;5.364;2023-07-02T08:54:12;14.90;;;5.43;;
69594;SDS011;56800;52.142;5.364;2023-07-02T08:56:39;16.38;;;5.47;;
69594;SDS011;56800;52.142;5.364;2023-07-02T08:59:09;11.63;;;5.35;;
69594;SDS011;56800;52.142;5.364;2023-07-02T09:01:46;15.87;;;5.87;;
69594;SDS011;56800;52.142;5.364;2023-07-02T09:04:17;17.00;;;5.35;;
69594;SDS011;56800;52.142;5.364;2023-07-02T09:06:47;14.45;;;5.15;;
69594;SDS011;56800;52.142;5.364;2023-07-02T09:09:14;18.25;;;5.57;;
69594;SDS011;56800;52.142;5.364;2023-07-02T09:11:50;14.68;;;5.60;;
69594;SDS011;56800;52.142;5.364;2023-07-02T09:14:30;14.53;;;5.20;;
69594;SDS011;56800;52.142;5.364;2023-07-02T09:17:04;16.20;;;5.55;;
69594;SDS011;56800;52.142;5.364;2023-07-02T09:19:35;11.63;;;4.70;;
69594;SDS011;56800;52.142;5.364;2023-07-02T09:22:03;14.13;;;5.10;;
69594;SDS011;56800;52.142;5.364;2023-07-02T09:24:30;10.90;;;4.47;;
69594;SDS011;56800;52.142;5.364;2023-07-02T09:26:59;11.27;;;4.90;;
69594;SDS011;56800;52.142;5.364;2023-07-02T09:29:33;11.25;;;4.70;;
69594;SDS011;56800;52.142;5.364;2023-07-02T09:32:01;9.70;;;4.10;;
69594;SDS011;56800;52.142;5.364;2023-07-02T09:34:36;11.20;;;4.15;;
69594;SDS011;56800;52.142;5.364;2023-07-02T09:37:06;14.98;;;4.43;;
69594;SDS011;56800;52.142;5.364;2023-07-02T09:39:33;8.20;;;3.73;;
69594;SDS011;56800;52.142;5.364;2023-07-02T09:42:03;10.55;;;3.60;;
69594;SDS011;56800;52.142;5.364;2023-07-02T09:44:32;16.20;;;4.43;;
69594;SDS011;56800;52.142;5.364;2023-07-02T09:49:31;11.80;;;4.13;;
69594;SDS011;56800;52.142;5.364;2023-07-02T09:52:00;13.00;;;4.43;;
69594;SDS011;56800;52.142;5.364;2023-07-02T09:54:29;10.52;;;4.25;;
69594;SDS011;56800;52.142;5.364;2023-07-02T09:56:57;8.18;;;3.40;;
69594;SDS011;56800;52.142;5.364;2023-07-02T09:59:25;7.95;;;3.35;;
69594;SDS011;56800;52.142;5.364;2023-07-02T10:01:52;8.35;;;3.92;;
69594;SDS011;56800;52.142;5.364;2023-07-02T10:04:19;7.07;;;3.60;;
69594;SDS011;56800;52.142;5.364;2023-07-02T10:06:48;9.75;;;4.20;;
69594;SDS011;56800;52.142;5.364;2023-07-02T10:09:20;7.63;;;3.65;;
69594;SDS011;56800;52.142;5.364;2023-07-02T10:12:01;7.95;;;3.47;;
69594;SDS011;56800;52.142;5.364;2023-07-02T10:14:39;10.68;;;4.22;;
69594;SDS011;56800;52.142;5.364;2023-07-02T10:17:10;10.97;;;3.90;;
69594;SDS011;56800;52.142;5.364;2023-07-02T10:19:50;8.88;;;3.55;;
69594;SDS011;56800;52.142;5.364;2023-07-02T10:22:21;8.30;;;3.63;;
69594;SDS011;56800;52.142;5.364;2023-07-02T10:24:52;9.55;;;3.10;;
69594;SDS011;56800;52.142;5.364;2023-07-02T10:27:19;7.07;;;2.85;;
69594;SDS011;56800;52.142;5.364;2023-07-02T10:29:49;6.80;;;2.90;;
69594;SDS011;56800;52.142;5.364;2023-07-02T10:32:26;7.75;;;3.88;;
69594;SDS011;56800;52.142;5.364;2023-07-02T10:34:57;11.70;;;3.95;;
69594;SDS011;56800;52.142;5.364;2023-07-02T10:37:26;7.55;;;3.28;;
69594;SDS011;56800;52.142;5.364;2023-07-02T10:39:53;10.60;;;4.00;;
69594;SDS011;56800;52.142;5.364;2023-07-02T10:42:20;13.20;;;4.37;;
69594;SDS011;56800;52.142;5.364;2023-07-02T10:44:49;12.27;;;3.97;;
69594;SDS011;56800;52.142;5.364;2023-07-02T10:47:18;9.20;;;4.07;;
69594;SDS011;56800;52.142;5.364;2023-07-02T10:49:45;9.10;;;3.90;;
69594;SDS011;56800;52.142;5.364;2023-07-02T10:52:12;11.30;;;4.25;;
69594;SDS011;56800;52.142;5.364;2023-07-02T10:54:40;12.43;;;4.20;;
69594;SDS011;56800;52.142;5.364;2023-07-02T10:57:08;8.90;;;4.00;;
69594;SDS011;56800;52.142;5.364;2023-07-02T10:59:35;8.02;;;3.83;;
69594;SDS011;56800;52.142;5.364;2023-07-02T11:02:02;8.65;;;4.05;;
69594;SDS011;56800;52.142;5.364;2023-07-02T11:04:30;13.98;;;4.53;;
69594;SDS011;56800;52.142;5.364;2023-07-02T11:06:58;8.10;;;4.27;;
69594;SDS011;56800;52.142;5.364;2023-07-02T11:09:25;11.75;;;4.50;;
69594;SDS011;56800;52.142;5.364;2023-07-02T11:11:59;10.20;;;4.20;;
69594;SDS011;56800;52.142;5.364;2023-07-02T11:16:58;9.60;;;4.25;;
69594;SDS011;56800;52.142;5.364;2023-07-02T11:19:28;8.70;;;4.00;;
69594;SDS011;56800;52.142;5.364;2023-07-02T11:21:56;9.40;;;3.85;;
69594;SDS011;56800;52.142;5.364;2023-07-02T11:24:27;9.85;;;3.97;;
69594;SDS011;56800;52.142;5.364;2023-07-02T11:26:55;13.80;;;3.50;;
69594;SDS011;56800;52.142;5.364;2023-07-02T11:29:22;10.98;;;4.20;;
69594;SDS011;56800;52.142;5.364;2023-07-02T11:31:49;9.77;;;3.80;;
69594;SDS011;56800;52.142;5.364;2023-07-02T11:34:17;14.43;;;4.05;;
69594;SDS011;56800;52.142;5.364;2023-07-02T11:36:47;13.85;;;4.72;;
69594;SDS011;56800;52.142;5.364;2023-07-02T11:39:16;10.90;;;4.38;;
69594;SDS011;56800;52.142;5.364;2023-07-02T11:41:43;11.13;;;4.20;;
69594;SDS011;56800;52.142;5.364;2023-07-02T11:44:11;17.73;;;4.57;;
69594;SDS011;56800;52.142;5.364;2023-07-02T11:46:38;14.43;;;5.15;;
69594;SDS011;56800;52.142;5.364;2023-07-02T11:49:05;7.05;;;3.42;;
69594;SDS011;56800;52.142;5.364;2023-07-02T11:51:37;9.50;;;4.35;;
69594;SDS011;56800;52.142;5.364;2023-07-02T11:54:07;15.25;;;4.03;;
69594;SDS011;56800;52.142;5.364;2023-07-02T11:56:34;10.43;;;3.63;;
69594;SDS011;56800;52.142;5.364;2023-07-02T11:59:01;10.27;;;4.55;;
69594;SDS011;56800;52.142;5.364;2023-07-02T12:01:30;11.77;;;4.57;;
69594;SDS011;56800;52.142;5.364;2023-07-02T12:03:57;11.43;;;4.60;;
69594;SDS011;56800;52.142;5.364;2023-07-02T12:06:24;10.98;;;4.45;;
69594;SDS011;56800;52.142;5.364;2023-07-02T12:08:51;11.40;;;4.70;;
69594;SDS011;56800;52.142;5.364;2023-07-02T12:11:17;7.85;;;3.72;;
69594;SDS011;56800;52.142;5.364;2023-07-02T12:13:44;11.93;;;4.47;;
69594;SDS011;56800;52.142;5.364;2023-07-02T12:16:11;11.30;;;4.53;;
69594;SDS011;56800;52.142;5.364;2023-07-02T12:18:38;9.52;;;4.05;;
69594;SDS011;56800;52.142;5.364;2023-07-02T12:21:04;11.43;;;4.57;;
69594;SDS011;56800;52.142;5.364;2023-07-02T12:23:31;9.25;;;4.20;;
69594;SDS011;56800;52.142;5.364;2023-07-02T12:25:58;11.73;;;4.53;;
69594;SDS011;56800;52.142;5.364;2023-07-02T12:28:24;8.43;;;3.95;;
69594;SDS011;56800;52.142;5.364;2023-07-02T12:30:51;11.82;;;4.95;;
69594;SDS011;56800;52.142;5.364;2023-07-02T12:33:18;10.70;;;4.63;;
69594;SDS011;56800;52.142;5.364;2023-07-02T12:35:45;13.98;;;5.05;;
69594;SDS011;56800;52.142;5.364;2023-07-02T12:38:12;11.77;;;4.90;;
69594;SDS011;56800;52.142;5.364;2023-07-02T12:40:40;8.07;;;4.53;;
69594;SDS011;56800;52.142;5.364;2023-07-02T12:43:07;9.93;;;5.07;;
69594;SDS011;56800;52.142;5.364;2023-07-02T12:45:33;8.93;;;4.50;;
69594;SDS011;56800;52.142;5.364;2023-07-02T12:48:00;11.30;;;5.00;;
69594;SDS011;56800;52.142;5.364;2023-07-02T12:50:27;11.75;;;4.85;;
69594;SDS011;56800;52.142;5.364;2023-07-02T12:52:53;12.63;;;5.00;;
69594;SDS011;56800;52.142;5.364;2023-07-02T12:55:20;10.55;;;5.10;;
69594;SDS011;56800;52.142;5.364;2023-07-02T12:57:47;10.35;;;5.00;;
69594;SDS011;56800;52.142;5.364;2023-07-02T13:00:14;9.55;;;4.80;;
69594;SDS011;56800;52.142;5.364;2023-07-02T13:02:41;10.77;;;5.05;;
69594;SDS011;56800;52.142;5.364;2023-07-02T13:05:23;12.32;;;5.15;;
69594;SDS011;56800;52.142;5.364;2023-07-02T13:07:50;10.57;;;5.45;;
69594;SDS011;56800;52.142;5.364;2023-07-02T13:10:17;8.98;;;4.68;;
69594;SDS011;56800;52.142;5.364;2023-07-02T13:12:43;11.80;;;5.10;;
69594;SDS011;56800;52.142;5.364;2023-07-02T13:15:10;13.65;;;5.18;;
69594;SDS011;56800;52.142;5.364;2023-07-02T13:17:38;13.63;;;4.95;;
69594;SDS011;56800;52.142;5.364;2023-07-02T13:20:05;12.35;;;5.20;;
69594;SDS011;56800;52.142;5.364;2023-07-02T13:22:32;11.73;;;5.40;;
69594;SDS011;56800;52.142;5.364;2023-07-02T13:24:59;10.93;;;5.35;;
69594;SDS011;56800;52.142;5.364;2023-07-02T13:27:25;10.05;;;5.20;;
69594;SDS011;56800;52.142;5.364;2023-07-02T13:29:52;13.00;;;5.32;;
69594;SDS011;56800;52.142;5.364;2023-07-02T13:32:19;12.25;;;5.10;;
69594;SDS011;56800;52.142;5.364;2023-07-02T13:34:46;10.45;;;5.50;;
69594;SDS011;56800;52.142;5.364;2023-07-02T13:37:12;8.60;;;5.07;;
69594;SDS011;56800;52.142;5.364;2023-07-02T13:39:40;10.15;;;5.03;;
69594;SDS011;56800;52.142;5.364;2023-07-02T13:42:07;12.20;;;5.38;;
69594;SDS011;56800;52.142;5.364;2023-07-02T13:44:33;11.73;;;5.18;;
69594;SDS011;56800;52.142;5.364;2023-07-02T13:47:00;10.32;;;4.88;;
69594;SDS011;56800;52.142;5.364;2023-07-02T13:49:27;13.63;;;5.15;;
69594;SDS011;56800;52.142;5.364;2023-07-02T13:51:53;10.80;;;5.32;;
69594;SDS011;56800;52.142;5.364;2023-07-02T13:54:20;10.90;;;5.25;;
69594;SDS011;56800;52.142;5.364;2023-07-02T13:56:47;10.32;;;5.63;;
69594;SDS011;56800;52.142;5.364;2023-07-02T13:59:16;10.52;;;4.68;;
69594;SDS011;56800;52.142;5.364;2023-07-02T14:01:43;11.90;;;5.38;;
69594;SDS011;56800;52.142;5.364;2023-07-02T14:04:11;10.80;;;5.32;;
69594;SDS011;56800;52.142;5.364;2023-07-02T14:06:38;11.52;;;5.35;;
69594;SDS011;56800;52.142;5.364;2023-07-02T14:09:05;11.95;;;5.30;;
69594;SDS011;56800;52.142;5.364;2023-07-02T14:11:33;10.73;;;5.55;;
69594;SDS011;56800;52.142;5.364;2023-07-02T14:14:01;15.77;;;5.90;;
69594;SDS011;56800;52.142;5.364;2023-07-02T14:16:28;11.70;;;5.95;;
69594;SDS011;56800;52.142;5.364;2023-07-02T14:18:55;11.05;;;5.50;;
69594;SDS011;56800;52.142;5.364;2023-07-02T14:21:21;13.45;;;6.20;;
69594;SDS011;56800;52.142;5.364;2023-07-02T14:23:49;12.10;;;5.93;;
69594;SDS011;56800;52.142;5.364;2023-07-02T14:26:15;10.38;;;5.88;;
69594;SDS011;56800;52.142;5.364;2023-07-02T14:28:42;13.90;;;6.32;;
69594;SDS011;56800;52.142;5.364;2023-07-02T14:31:09;13.90;;;5.38;;
69594;SDS011;56800;52.142;5.364;2023-07-02T14:33:36;13.38;;;6.07;;
69594;SDS011;56800;52.142;5.364;2023-07-02T14:36:04;13.60;;;5.63;;
69594;SDS011;56800;52.142;5.364;2023-07-02T14:38:32;14.30;;;5.93;;
69594;SDS011;56800;52.142;5.364;2023-07-02T14:40:59;11.80;;;5.60;;
69594;SDS011;56800;52.142;5.364;2023-07-02T14:43:27;13.85;;;5.82;;
69594;SDS011;56800;52.142;5.364;2023-07-02T14:45:56;12.23;;;5.25;;
69594;SDS011;56800;52.142;5.364;2023-07-02T14:48:25;11.95;;;5.53;;